sensor_id;sensor_type;location;lat;lon;timestamp;pressure;altitude;pressure_sealevel;temperature;humidity
38939;BME280;24211;49.980;19.776;2023-02-04T00:00:25;98615.59;;;3.21;100.00
38939;BME280;24211;49.980;19.776;2023-02-04T00:03:14;98612.38;;;3.25;100.00
38939;BME280;24211;49.980;19.776;2023-02-04T00:05:42;98613.19;;;3.26;100.00
38939;BME280;24211;49.980;19.776;2023-02-04T00:08:10;98614.44;;;3.30;100.00
38939;BME280;24211;49.980;19.776;2023-02-04T00:10:37;98594.34;;;3.29;100.00
38939;BME280;24211;49.980;19.776;2023-02-04T00:13:05;98605.50;;;3.31;100.00
38939;BME280;24211;49.980;19.776;2023-02-04T00:15:32;98610.78;;;3.31;100.00
38939;BME280;24211;49.980;19.776;2023-02-04T00:18:00;98612.41;;;3.32;100.00
38939;BME280;24211;49.980;19.776;2023-02-04T00:20:29;98612.41;;;3.32;100.00
38939;BME280;24211;49.980;19.776;2023-02-04T00:22:57;98610.78;;;3.31;100.00
38939;BME280;24211;49.980;19.776;2023-02-04T00:25:24;98605.13;;;3.34;100.00
38939;BME280;24211;49.980;19.776;2023-02-04T00:27:51;98610.41;;;3.34;100.00
38939;BME280;24211;49.980;19.776;2023-02-04T00:30:19;98617.31;;;3.35;100.00
38939;BME280;24211;49.980;19.776;2023-02-04T00:32:46;98607.34;;;3.37;100.00
38939;BME280;24211;49.980;19.776;2023-02-04T00:35:13;98612.03;;;3.35;100.00
38939;BME280;24211;49.980;19.776;2023-02-04T00:37:41;98606.34;;;3.38;100.00
38939;BME280;24211;49.980;19.776;2023-02-04T00:40:09;98602.69;;;3.39;100.00
38939;BME280;24211;49.980;19.776;2023-02-04T00:42:38;98607.19;;;3.39;100.00
38939;BME280;24211;49.980;19.776;2023-02-04T00:45:05;98611.25;;;3.41;100.00
38939;BME280;24211;49.980;19.776;2023-02-04T00:47:33;98596.19;;;3.42;100.00
38939;BME280;24211;49.980;19.776;2023-02-04T00:50:03;98602.69;;;3.39;100.00
38939;BME280;24211;49.980;19.776;2023-02-04T00:52:30;98591.13;;;3.40;100.00
38939;BME280;24211;49.980;19.776;2023-02-04T00:54:57;98590.72;;;3.43;100.00
38939;BME280;24211;49.980;19.776;2023-02-04T00:57:25;98589.53;;;3.46;100.00
38939;BME280;24211;49.980;19.776;2023-02-04T00:59:52;98585.25;;;3.45;100.00
38939;BME280;24211;49.980;19.776;2023-02-04T01:02:19;98595.00;;;3.44;100.00
38939;BME280;24211;49.980;19.776;2023-02-04T01:04:47;98590.53;;;3.45;100.00
38939;BME280;24211;49.980;19.776;2023-02-04T01:07:17;98584.25;;;3.46;100.00
38939;BME280;24211;49.980;19.776;2023-02-04T01:09:44;98578.13;;;3.45;100.00
38939;BME280;24211;49.980;19.776;2023-02-04T01:12:11;98580.16;;;3.43;100.00
38939;BME280;24211;49.980;19.776;2023-02-04T01:14:39;98564.50;;;3.42;100.00
38939;BME280;24211;49.980;19.776;2023-02-04T01:17:06;98567.78;;;3.44;100.00
38939;BME280;24211;49.980;19.776;2023-02-04T01:19:34;98562.69;;;3.42;100.00
38939;BME280;24211;49.980;19.776;2023-02-04T01:22:01;98556.78;;;3.40;100.00
38939;BME280;24211;49.980;19.776;2023-02-04T01:24:29;98550.09;;;3.44;100.00
38939;BME280;24211;49.980;19.776;2023-02-04T01:27:19;98548.25;;;3.45;100.00
38939;BME280;24211;49.980;19.776;2023-02-04T01:29:47;98541.78;;;3.47;100.00
38939;BME280;24211;49.980;19.776;2023-02-04T01:32:14;98550.91;;;3.45;100.00
38939;BME280;24211;49.980;19.776;2023-02-04T01:34:41;98547.88;;;3.41;100.00
38939;BME280;24211;49.980;19.776;2023-02-04T01:37:09;98544.81;;;3.44;100.00
38939;BME280;24211;49.980;19.776;2023-02-04T01:39:36;98548.47;;;3.43;100.00
38939;BME280;24211;49.980;19.776;2023-02-04T01:42:03;98540.56;;;3.43;100.00
38939;BME280;24211;49.980;19.776;2023-02-04T01:44:31;98539.53;;;3.44;100.00
38939;BME280;24211;49.980;19.776;2023-02-04T01:46:59;98539.75;;;3.49;100.00
38939;BME280;24211;49.980;19.776;2023-02-04T01:49:27;98540.16;;;3.53;100.00
38939;BME280;24211;49.980;19.776;2023-02-04T01:51:55;98532.47;;;3.51;100.00
38939;BME280;24211;49.980;19.776;2023-02-04T01:54:25;98542.59;;;3.54;100.00
38939;BME280;24211;49.980;19.776;2023-02-04T01:56:53;98541.81;;;3.60;100.00
38939;BME280;24211;49.980;19.776;2023-02-04T01:59:22;98533.28;;;3.58;100.00
38939;BME280;24211;49.980;19.776;2023-02-04T02:01:52;98537.31;;;3.54;100.00
38939;BME280;24211;49.980;19.776;2023-02-04T02:04:29;98538.34;;;3.53;100.00
38939;BME280;24211;49.980;19.776;2023-02-04T02:07:04;98536.53;;;3.54;100.00
38939;BME280;24211;49.980;19.776;2023-02-04T02:09:33;98539.19;;;3.54;100.00
38939;BME280;24211;49.980;19.776;2023-02-04T02:12:02;98541.38;;;3.50;100.00
38939;BME280;24211;49.980;19.776;2023-02-04T02:14:31;98549.53;;;3.55;100.00
38939;BME280;24211;49.980;19.776;2023-02-04T02:16:58;98542.00;;;3.52;100.00
38939;BME280;24211;49.980;19.776;2023-02-04T02:19:32;98549.91;;;3.52;100.00
38939;BME280;24211;49.980;19.776;2023-02-04T02:22:26;98564.94;;;3.52;100.00
38939;BME280;24211;49.980;19.776;2023-02-04T02:24:54;98558.44;;;3.54;100.00
38939;BME280;24211;49.980;19.776;2023-02-04T02:27:22;98568.78;;;3.49;100.00
38939;BME280;24211;49.980;19.776;2023-02-04T02:29:50;98583.25;;;3.53;100.00
38939;BME280;24211;49.980;19.776;2023-02-04T02:32:18;98591.34;;;3.45;100.00
38939;BME280;24211;49.980;19.776;2023-02-04T02:34:46;98590.97;;;3.48;100.00
38939;BME280;24211;49.980;19.776;2023-02-04T02:37:13;98594.59;;;3.47;100.00
38939;BME280;24211;49.980;19.776;2023-02-04T02:39:43;98591.72;;;3.42;100.00
38939;BME280;24211;49.980;19.776;2023-02-04T02:42:16;98592.34;;;3.44;100.00
38939;BME280;24211;49.980;19.776;2023-02-04T02:44:46;98588.91;;;3.44;100.00
38939;BME280;24211;49.980;19.776;2023-02-04T02:47:19;98584.84;;;3.41;100.00
38939;BME280;24211;49.980;19.776;2023-02-04T02:49:51;98591.13;;;3.40;100.00
38939;BME280;24211;49.980;19.776;2023-02-04T02:52:20;98586.44;;;3.42;100.00
38939;BME280;24211;49.980;19.776;2023-02-04T02:54:49;98585.22;;;3.38;100.00
38939;BME280;24211;49.980;19.776;2023-02-04T02:57:22;98585.00;;;3.33;100.00
38939;BME280;24211;49.980;19.776;2023-02-04T02:59:49;98580.94;;;3.37;100.00
38939;BME280;24211;49.980;19.776;2023-02-04T03:02:21;98590.28;;;3.33;100.00
38939;BME280;24211;49.980;19.776;2023-02-04T03:04:55;98606.03;;;3.20;100.00
38939;BME280;24211;49.980;19.776;2023-02-04T03:07:30;98613.34;;;3.18;100.00
38939;BME280;24211;49.980;19.776;2023-02-04T03:09:58;98616.78;;;3.12;100.00
38939;BME280;24211;49.980;19.776;2023-02-04T03:12:26;98618.78;;;3.10;100.00
38939;BME280;24211;49.980;19.776;2023-02-04T03:14:54;98634.00;;;3.08;100.00
38939;BME280;24211;49.980;19.776;2023-02-04T03:17:21;98630.94;;;3.04;100.00
38939;BME280;24211;49.980;19.776;2023-02-04T03:19:49;98632.16;;;3.02;100.00
38939;BME280;24211;49.980;19.776;2023-02-04T03:22:16;98631.28;;;2.95;100.00
38939;BME280;24211;49.980;19.776;2023-02-04T03:24:45;98632.28;;;2.94;100.00
38939;BME280;24211;49.980;19.776;2023-02-04T03:27:14;98637.00;;;3.05;100.00
38939;BME280;24211;49.980;19.776;2023-02-04T03:29:43;98643.69;;;3.01;100.00
38939;BME280;24211;49.980;19.776;2023-02-04T03:32:11;98644.09;;;2.98;100.00
38939;BME280;24211;49.980;19.776;2023-02-04T03:34:38;98654.41;;;2.93;100.00
38939;BME280;24211;49.980;19.776;2023-02-04T03:37:07;98657.63;;;2.88;100.00
38939;BME280;24211;49.980;19.776;2023-02-04T03:39:34;98672.63;;;2.88;100.00
38939;BME280;24211;49.980;19.776;2023-02-04T03:42:02;98680.41;;;2.96;100.00
38939;BME280;24211;49.980;19.776;2023-02-04T03:44:30;98685.69;;;2.96;100.00
38939;BME280;24211;49.980;19.776;2023-02-04T03:46:57;98695.88;;;2.99;100.00
38939;BME280;24211;49.980;19.776;2023-02-04T03:49:26;98698.50;;;2.99;100.00
38939;BME280;24211;49.980;19.776;2023-02-04T03:51:54;98706.44;;;2.99;100.00
38939;BME280;24211;49.980;19.776;2023-02-04T03:54:21;98712.09;;;2.96;100.00
38939;BME280;24211;49.980;19.776;2023-02-04T03:56:49;98712.63;;;2.85;100.00
38939;BME280;24211;49.980;19.776;2023-02-04T03:59:16;98717.25;;;2.83;100.00
38939;BME280;24211;49.980;19.776;2023-02-04T04:01:44;98722.16;;;2.86;100.00
38939;BME280;24211;49.980;19.776;2023-02-04T04:04:11;98724.72;;;2.79;100.00
38939;BME280;24211;49.980;19.776;2023-02-04T04:06:39;98732.19;;;2.76;100.00
38939;BME280;24211;49.980;19.776;2023-02-04T04:09:07;98745.78;;;2.73;100.00
38939;BME280;24211;49.980;19.776;2023-02-04T04:11:34;98748.69;;;2.78;100.00
38939;BME280;24211;49.980;19.776;2023-02-04T04:14:01;98757.34;;;2.72;100.00
38939;BME280;24211;49.980;19.776;2023-02-04T04:16:29;98756.41;;;2.79;100.00
38939;BME280;24211;49.980;19.776;2023-02-04T04:18:56;98767.88;;;2.72;100.00
38939;BME280;24211;49.980;19.776;2023-02-04T04:21:23;98783.78;;;2.78;100.00
38939;BME280;24211;49.980;19.776;2023-02-04T04:23:50;98789.44;;;2.75;100.00
38939;BME280;24211;49.980;19.776;2023-02-04T04:26:18;98797.53;;;2.74;100.00
38939;BME280;24211;49.980;19.776;2023-02-04T04:28:45;98791.38;;;2.67;100.00
38939;BME280;24211;49.980;19.776;2023-02-04T04:31:13;98809.13;;;2.73;100.00
38939;BME280;24211;49.980;19.776;2023-02-04T04:33:40;98816.56;;;2.69;100.00
38939;BME280;24211;49.980;19.776;2023-02-04T04:36:08;98843.78;;;2.70;100.00
38939;BME280;24211;49.980;19.776;2023-02-04T04:38:35;98863.78;;;2.64;100.00
38939;BME280;24211;49.980;19.776;2023-02-04T04:41:03;98879.06;;;2.69;100.00
38939;BME280;24211;49.980;19.776;2023-02-04T04:43:30;98896.44;;;2.63;100.00
38939;BME280;24211;49.980;19.776;2023-02-04T04:45:58;98899.28;;;2.61;100.00
38939;BME280;24211;49.980;19.776;2023-02-04T04:48:25;98922.84;;;2.48;100.00
38939;BME280;24211;49.980;19.776;2023-02-04T04:50:52;98934.75;;;2.44;100.00
38939;BME280;24211;49.980;19.776;2023-02-04T04:53:19;98938.78;;;2.40;100.00
38939;BME280;24211;49.980;19.776;2023-02-04T04:55:47;98951.75;;;2.13;100.00
38939;BME280;24211;49.980;19.776;2023-02-04T04:58:14;98984.25;;;2.05;100.00
38939;BME280;24211;49.980;19.776;2023-02-04T05:00:41;98995.88;;;1.96;100.00
38939;BME280;24211;49.980;19.776;2023-02-04T05:03:08;99009.41;;;1.93;100.00
38939;BME280;24211;49.980;19.776;2023-02-04T05:05:36;99021.00;;;1.84;100.00
38939;BME280;24211;49.980;19.776;2023-02-04T05:08:07;99038.69;;;1.75;100.00
38939;BME280;24211;49.980;19.776;2023-02-04T05:10:39;99062.06;;;2.01;100.00
38939;BME280;24211;49.980;19.776;2023-02-04T05:13:07;99076.16;;;1.85;100.00
38939;BME280;24211;49.980;19.776;2023-02-04T05:15:34;99092.41;;;1.66;100.00
38939;BME280;24211;49.980;19.776;2023-02-04T05:18:02;99104.00;;;1.57;100.00
38939;BME280;24211;49.980;19.776;2023-02-04T05:20:30;99113.72;;;1.49;100.00
38939;BME280;24211;49.980;19.776;2023-02-04T05:22:57;99144.94;;;1.60;100.00
38939;BME280;24211;49.980;19.776;2023-02-04T05:25:27;99142.03;;;1.55;100.00
38939;BME280;24211;49.980;19.776;2023-02-04T05:27:55;99172.81;;;1.46;100.00
38939;BME280;24211;49.980;19.776;2023-02-04T05:30:22;99188.66;;;1.38;100.00
38939;BME280;24211;49.980;19.776;2023-02-04T05:32:49;99212.22;;;1.23;100.00
38939;BME280;24211;49.980;19.776;2023-02-04T05:35:17;99226.97;;;1.49;100.00
38939;BME280;24211;49.980;19.776;2023-02-04T05:37:44;99243.09;;;1.46;100.00
38939;BME280;24211;49.980;19.776;2023-02-04T05:40:12;99258.75;;;1.39;100.00
38939;BME280;24211;49.980;19.776;2023-02-04T05:42:40;99281.13;;;1.43;100.00
38939;BME280;24211;49.980;19.776;2023-02-04T05:45:15;99293.16;;;1.38;100.00
38939;BME280;24211;49.980;19.776;2023-02-04T05:47:42;99301.38;;;1.26;100.00
38939;BME280;24211;49.980;19.776;2023-02-04T05:50:10;99314.56;;;1.35;100.00
38939;BME280;24211;49.980;19.776;2023-02-04T05:52:37;99330.31;;;1.51;100.00
38939;BME280;24211;49.980;19.776;2023-02-04T05:55:06;99351.09;;;1.38;100.00
38939;BME280;24211;49.980;19.776;2023-02-04T05:57:33;99360.91;;;1.60;100.00
38939;BME280;24211;49.980;19.776;2023-02-04T06:00:02;99381.34;;;1.50;100.00
38939;BME280;24211;49.980;19.776;2023-02-04T06:02:37;99400.59;;;1.26;100.00
38939;BME280;24211;49.980;19.776;2023-02-04T06:05:05;99418.22;;;1.42;100.00
38939;BME280;24211;49.980;19.776;2023-02-04T06:07:33;99434.00;;;1.42;100.00
38939;BME280;24211;49.980;19.776;2023-02-04T06:10:00;99451.94;;;1.38;100.00
38939;BME280;24211;49.980;19.776;2023-02-04T06:12:29;99459.34;;;1.43;100.00
38939;BME280;24211;49.980;19.776;2023-02-04T06:14:57;99483.69;;;1.28;100.00
38939;BME280;24211;49.980;19.776;2023-02-04T06:17:24;99493.88;;;1.15;100.00
38939;BME280;24211;49.980;19.776;2023-02-04T06:19:51;99507.84;;;1.16;100.00
38939;BME280;24211;49.980;19.776;2023-02-04T06:22:19;99524.13;;;1.19;100.00
38939;BME280;24211;49.980;19.776;2023-02-04T06:24:46;99534.91;;;1.42;100.00
38939;BME280;24211;49.980;19.776;2023-02-04T06:27:14;99559.22;;;1.36;100.00
38939;BME280;24211;49.980;19.776;2023-02-04T06:29:51;99568.34;;;1.58;100.00
38939;BME280;24211;49.980;19.776;2023-02-04T06:32:19;99583.78;;;1.45;100.00
38939;BME280;24211;49.980;19.776;2023-02-04T06:34:47;99595.34;;;1.52;100.00
38939;BME280;24211;49.980;19.776;2023-02-04T06:37:15;99612.06;;;1.43;100.00
38939;BME280;24211;49.980;19.776;2023-02-04T06:39:43;99634.38;;;1.22;100.00
38939;BME280;24211;49.980;19.776;2023-02-04T06:42:10;99639.59;;;1.14;100.00
38939;BME280;24211;49.980;19.776;2023-02-04T06:44:38;99665.06;;;1.40;100.00
38939;BME280;24211;49.980;19.776;2023-02-04T06:47:05;99668.06;;;1.45;100.00
38939;BME280;24211;49.980;19.776;2023-02-04T06:49:33;99683.53;;;1.48;100.00
38939;BME280;24211;49.980;19.776;2023-02-04T06:52:00;99690.22;;;1.08;100.00
38939;BME280;24211;49.980;19.776;2023-02-04T06:54:27;99718.03;;;1.37;100.00
38939;BME280;24211;49.980;19.776;2023-02-04T06:56:54;99730.50;;;1.26;100.00
38939;BME280;24211;49.980;19.776;2023-02-04T06:59:22;99748.34;;;1.15;100.00
38939;BME280;24211;49.980;19.776;2023-02-04T07:01:51;99755.72;;;1.11;100.00
38939;BME280;24211;49.980;19.776;2023-02-04T07:04:18;99770.41;;;0.96;100.00
38939;BME280;24211;49.980;19.776;2023-02-04T07:06:45;99775.75;;;1.04;100.00
38939;BME280;24211;49.980;19.776;2023-02-04T07:09:13;99781.25;;;0.93;100.00
38939;BME280;24211;49.980;19.776;2023-02-04T07:11:40;99795.06;;;1.13;100.00
38939;BME280;24211;49.980;19.776;2023-02-04T07:14:07;99808.31;;;1.47;100.00
38939;BME280;24211;49.980;19.776;2023-02-04T07:16:36;99819.16;;;1.26;100.00
38939;BME280;24211;49.980;19.776;2023-02-04T07:19:04;99830.56;;;1.09;100.00
38939;BME280;24211;49.980;19.776;2023-02-04T07:21:31;99841.31;;;1.15;100.00
38939;BME280;24211;49.980;19.776;2023-02-04T07:23:58;99854.53;;;1.23;100.00
38939;BME280;24211;49.980;19.776;2023-02-04T07:26:25;99861.47;;;1.24;100.00
38939;BME280;24211;49.980;19.776;2023-02-04T07:28:53;99874.63;;;1.07;100.00
38939;BME280;24211;49.980;19.776;2023-02-04T07:31:20;99885.81;;;1.26;100.00
38939;BME280;24211;49.980;19.776;2023-02-04T07:33:47;99893.50;;;1.02;100.00
38939;BME280;24211;49.980;19.776;2023-02-04T07:36:15;99908.47;;;1.19;100.00
38939;BME280;24211;49.980;19.776;2023-02-04T07:38:42;99911.00;;;1.11;100.00
38939;BME280;24211;49.980;19.776;2023-02-04T07:41:09;99928.84;;;1.17;100.00
38939;BME280;24211;49.980;19.776;2023-02-04T07:43:37;99941.09;;;1.09;100.00
38939;BME280;24211;49.980;19.776;2023-02-04T07:46:04;99947.97;;;1.19;100.00
38939;BME280;24211;49.980;19.776;2023-02-04T07:48:32;99961.94;;;1.02;100.00
38939;BME280;24211;49.980;19.776;2023-02-04T07:50:59;99963.53;;;1.13;100.00
38939;BME280;24211;49.980;19.776;2023-02-04T07:53:28;99975.63;;;1.23;100.00
38939;BME280;24211;49.980;19.776;2023-02-04T07:55:55;99987.44;;;1.19;100.00
38939;BME280;24211;49.980;19.776;2023-02-04T07:58:23;100000.00;;;0.81;100.00
38939;BME280;24211;49.980;19.776;2023-02-04T08:00:50;100008.53;;;0.92;100.00
38939;BME280;24211;49.980;19.776;2023-02-04T08:03:17;100013.50;;;0.95;100.00
38939;BME280;24211;49.980;19.776;2023-02-04T08:05:44;100024.88;;;0.86;100.00
38939;BME280;24211;49.980;19.776;2023-02-04T08:08:11;100029.13;;;0.97;100.00
38939;BME280;24211;49.980;19.776;2023-02-04T08:10:39;100021.44;;;0.86;100.00
38939;BME280;24211;49.980;19.776;2023-02-04T08:13:06;100035.72;;;0.83;100.00
38939;BME280;24211;49.980;19.776;2023-02-04T08:15:33;100033.94;;;1.01;100.00
38939;BME280;24211;49.980;19.776;2023-02-04T08:18:01;100046.97;;;1.03;100.00
38939;BME280;24211;49.980;19.776;2023-02-04T08:20:28;100048.91;;;1.01;100.00
38939;BME280;24211;49.980;19.776;2023-02-04T08:22:56;100059.13;;;0.77;100.00
38939;BME280;24211;49.980;19.776;2023-02-04T08:25:23;100062.31;;;0.80;100.00
38939;BME280;24211;49.980;19.776;2023-02-04T08:27:51;100077.63;;;0.94;100.00
38939;BME280;24211;49.980;19.776;2023-02-04T08:30:18;100077.09;;;0.81;100.00
38939;BME280;24211;49.980;19.776;2023-02-04T08:32:46;100090.84;;;0.75;100.00
38939;BME280;24211;49.980;19.776;2023-02-04T08:35:13;100099.69;;;0.74;100.00
38939;BME280;24211;49.980;19.776;2023-02-04T08:37:40;100097.19;;;0.82;100.00
38939;BME280;24211;49.980;19.776;2023-02-04T08:40:08;100116.75;;;0.70;100.00
38939;BME280;24211;49.980;19.776;2023-02-04T08:42:35;100110.28;;;1.01;100.00
38939;BME280;24211;49.980;19.776;2023-02-04T08:45:03;100121.16;;;0.79;100.00
38939;BME280;24211;49.980;19.776;2023-02-04T08:47:31;100121.59;;;0.65;100.00
38939;BME280;24211;49.980;19.776;2023-02-04T08:49:58;100134.72;;;0.84;100.00
38939;BME280;24211;49.980;19.776;2023-02-04T08:52:25;100131.25;;;0.93;100.00
38939;BME280;24211;49.980;19.776;2023-02-04T08:54:52;100147.78;;;0.76;100.00
38939;BME280;24211;49.980;19.776;2023-02-04T08:57:19;100155.59;;;0.95;100.00
38939;BME280;24211;49.980;19.776;2023-02-04T08:59:47;100165.84;;;0.98;100.00
38939;BME280;24211;49.980;19.776;2023-02-04T09:02:14;100172.19;;;1.05;100.00
38939;BME280;24211;49.980;19.776;2023-02-04T09:04:41;100174.41;;;1.10;100.00
38939;BME280;24211;49.980;19.776;2023-02-04T09:07:08;100183.75;;;1.31;100.00
38939;BME280;24211;49.980;19.776;2023-02-04T09:09:36;100199.00;;;1.18;100.00
38939;BME280;24211;49.980;19.776;2023-02-04T09:12:03;100195.56;;;1.08;100.00
38939;BME280;24211;49.980;19.776;2023-02-04T09:14:30;100197.44;;;0.98;100.00
38939;BME280;24211;49.980;19.776;2023-02-04T09:16:58;100200.09;;;1.35;100.00
38939;BME280;24211;49.980;19.776;2023-02-04T09:19:25;100205.97;;;1.19;100.00
38939;BME280;24211;49.980;19.776;2023-02-04T09:21:53;100205.97;;;1.10;100.00
38939;BME280;24211;49.980;19.776;2023-02-04T09:24:21;100208.72;;;1.27;100.00
38939;BME280;24211;49.980;19.776;2023-02-04T09:26:49;100213.72;;;1.11;100.00
38939;BME280;24211;49.980;19.776;2023-02-04T09:29:17;100219.09;;;1.29;100.00
38939;BME280;24211;49.980;19.776;2023-02-04T09:31:44;100217.44;;;1.55;100.00
38939;BME280;24211;49.980;19.776;2023-02-04T09:34:12;100227.94;;;1.65;100.00
38939;BME280;24211;49.980;19.776;2023-02-04T09:36:39;100221.31;;;1.61;100.00
38939;BME280;24211;49.980;19.776;2023-02-04T09:39:07;100236.56;;;1.67;100.00
38939;BME280;24211;49.980;19.776;2023-02-04T09:41:39;100235.75;;;1.57;100.00
38939;BME280;24211;49.980;19.776;2023-02-04T09:44:13;100246.22;;;1.76;100.00
38939;BME280;24211;49.980;19.776;2023-02-04T09:46:51;100245.94;;;1.79;100.00
38939;BME280;24211;49.980;19.776;2023-02-04T09:49:20;100236.47;;;1.86;100.00
38939;BME280;24211;49.980;19.776;2023-02-04T09:51:48;100256.09;;;2.01;100.00
38939;BME280;24211;49.980;19.776;2023-02-04T09:54:19;100257.66;;;1.94;100.00
38939;BME280;24211;49.980;19.776;2023-02-04T09:56:47;100264.97;;;2.00;100.00
38939;BME280;24211;49.980;19.776;2023-02-04T09:59:22;100276.09;;;1.94;100.00
38939;BME280;24211;49.980;19.776;2023-02-04T10:02:01;100267.81;;;1.89;100.00
38939;BME280;24211;49.980;19.776;2023-02-04T10:04:31;100286.19;;;1.71;100.00
38939;BME280;24211;49.980;19.776;2023-02-04T10:06:58;100284.25;;;1.64;100.00
38939;BME280;24211;49.980;19.776;2023-02-04T10:09:27;100290.34;;;1.74;100.00
38939;BME280;24211;49.980;19.776;2023-02-04T10:11:54;100289.81;;;1.61;100.00
38939;BME280;24211;49.980;19.776;2023-02-04T10:14:22;100287.06;;;1.53;100.00
38939;BME280;24211;49.980;19.776;2023-02-04T10:16:59;100296.59;;;1.63;100.00
38939;BME280;24211;49.980;19.776;2023-02-04T10:19:29;100306.97;;;1.65;100.00
38939;BME280;24211;49.980;19.776;2023-02-04T10:21:57;100308.72;;;1.47;100.00
38939;BME280;24211;49.980;19.776;2023-02-04T10:24:26;100308.44;;;1.50;100.00
38939;BME280;24211;49.980;19.776;2023-02-04T10:27:08;100315.94;;;1.45;100.00
38939;BME280;24211;49.980;19.776;2023-02-04T10:29:36;100321.44;;;1.61;100.00
38939;BME280;24211;49.980;19.776;2023-02-04T10:32:04;100320.00;;;1.76;100.00
38939;BME280;24211;49.980;19.776;2023-02-04T10:34:34;100325.44;;;1.65;100.00
38939;BME280;24211;49.980;19.776;2023-02-04T10:37:19;100341.41;;;1.54;100.00
38939;BME280;24211;49.980;19.776;2023-02-04T10:39:47;100332.06;;;1.78;100.00
38939;BME280;24211;49.980;19.776;2023-02-04T10:42:21;100340.25;;;1.75;100.00
38939;BME280;24211;49.980;19.776;2023-02-04T10:44:50;100338.84;;;1.81;100.00
38939;BME280;24211;49.980;19.776;2023-02-04T10:47:24;100351.03;;;1.82;100.00
38939;BME280;24211;49.980;19.776;2023-02-04T10:49:58;100351.63;;;1.76;100.00
38939;BME280;24211;49.980;19.776;2023-02-04T10:52:44;100361.56;;;1.82;100.00
38939;BME280;24211;49.980;19.776;2023-02-04T10:55:22;100358.25;;;1.80;100.00
38939;BME280;24211;49.980;19.776;2023-02-04T10:57:53;100371.34;;;1.72;100.00
38939;BME280;24211;49.980;19.776;2023-02-04T11:00:24;100357.75;;;1.67;100.00
38939;BME280;24211;49.980;19.776;2023-02-04T11:02:58;100363.44;;;1.72;100.00
38939;BME280;24211;49.980;19.776;2023-02-04T11:05:32;100360.78;;;1.72;100.00
38939;BME280;24211;49.980;19.776;2023-02-04T11:08:01;100368.28;;;1.76;100.00
38939;BME280;24211;49.980;19.776;2023-02-04T11:10:32;100369.13;;;1.58;100.00
38939;BME280;24211;49.980;19.776;2023-02-04T11:13:03;100378.13;;;1.65;100.00
38939;BME280;24211;49.980;19.776;2023-02-04T11:15:46;100377.16;;;1.66;100.00
38939;BME280;24211;49.980;19.776;2023-02-04T11:20:50;100368.25;;;1.86;100.00
38939;BME280;24211;49.980;19.776;2023-02-04T11:26:13;100383.50;;;1.82;100.00
38939;BME280;24211;49.980;19.776;2023-02-04T11:29:35;100376.66;;;1.89;100.00
38939;BME280;24211;49.980;19.776;2023-02-04T11:32:34;100380.94;;;2.00;100.00
38939;BME280;24211;49.980;19.776;2023-02-04T11:35:23;100377.09;;;1.85;100.00
38939;BME280;24211;49.980;19.776;2023-02-04T11:37:51;100380.00;;;2.01;100.00
38939;BME280;24211;49.980;19.776;2023-02-04T11:40:31;100391.75;;;2.07;100.00
38939;BME280;24211;49.980;19.776;2023-02-04T11:43:08;100392.28;;;2.10;100.00
38939;BME280;24211;49.980;19.776;2023-02-04T11:45:39;100394.72;;;2.21;100.00
38939;BME280;24211;49.980;19.776;2023-02-04T11:48:19;100391.66;;;2.35;100.00
38939;BME280;24211;49.980;19.776;2023-02-04T11:51:00;100386.81;;;2.58;100.00
38939;BME280;24211;49.980;19.776;2023-02-04T11:53:31;100410.16;;;2.53;100.00
38939;BME280;24211;49.980;19.776;2023-02-04T11:56:00;100400.75;;;2.50;100.00
38939;BME280;24211;49.980;19.776;2023-02-04T11:58:31;100408.91;;;2.20;100.00
38939;BME280;24211;49.980;19.776;2023-02-04T12:00:59;100422.50;;;2.25;100.00
38939;BME280;24211;49.980;19.776;2023-02-04T12:03:31;100416.53;;;2.23;100.00
38939;BME280;24211;49.980;19.776;2023-02-04T12:06:00;100415.84;;;2.21;100.00
38939;BME280;24211;49.980;19.776;2023-02-04T12:08:34;100421.34;;;2.37;100.00
38939;BME280;24211;49.980;19.776;2023-02-04T12:11:23;100431.44;;;2.05;100.00
38939;BME280;24211;49.980;19.776;2023-02-04T12:13:56;100433.03;;;2.25;100.00
38939;BME280;24211;49.980;19.776;2023-02-04T12:16:24;100442.06;;;2.59;100.00
38939;BME280;24211;49.980;19.776;2023-02-04T12:18:52;100448.28;;;2.31;100.00
38939;BME280;24211;49.980;19.776;2023-02-04T12:21:19;100444.69;;;2.32;100.00
38939;BME280;24211;49.980;19.776;2023-02-04T12:23:47;100449.97;;;2.32;100.00
38939;BME280;24211;49.980;19.776;2023-02-04T12:26:14;100454.63;;;2.11;100.00
38939;BME280;24211;49.980;19.776;2023-02-04T12:28:42;100450.09;;;1.56;100.00
38939;BME280;24211;49.980;19.776;2023-02-04T12:31:09;100460.94;;;1.72;100.00
38939;BME280;24211;49.980;19.776;2023-02-04T12:33:36;100463.97;;;1.39;100.00
38939;BME280;24211;49.980;19.776;2023-02-04T12:36:04;100467.97;;;1.43;100.00
38939;BME280;24211;49.980;19.776;2023-02-04T12:38:32;100476.47;;;1.46;100.00
38939;BME280;24211;49.980;19.776;2023-02-04T12:40:59;100482.28;;;1.59;100.00
38939;BME280;24211;49.980;19.776;2023-02-04T12:43:26;100485.88;;;1.49;100.00
38939;BME280;24211;49.980;19.776;2023-02-04T12:45:54;100485.56;;;1.23;100.00
38939;BME280;24211;49.980;19.776;2023-02-04T12:48:21;100502.78;;;1.56;100.00
38939;BME280;24211;49.980;19.776;2023-02-04T12:50:49;100503.38;;;1.50;100.00
38939;BME280;24211;49.980;19.776;2023-02-04T12:53:16;100500.81;;;1.19;100.00
38939;BME280;24211;49.980;19.776;2023-02-04T12:55:44;100510.28;;;1.51;100.00
38939;BME280;24211;49.980;19.776;2023-02-04T12:58:11;100519.16;;;1.69;100.00
38939;BME280;24211;49.980;19.776;2023-02-04T13:00:38;100511.69;;;1.74;100.00